Time;durP1;ratioP1;P1;durP2;ratioP2;P2;SDS_P1;SDS_P2;PMS_P1;PMS_P2;Temp;Humidity;BMP_temperature;BMP_pressure;BME280_temperature;BME280_humidity;BME280_pressure;Samples;Min_cycle;Max_cycle;Signal;HPM_P1;HPM_P2
2022/06/06 00:00:08;;;;;;;8.43;7.70;;;22.00;82.30;;;;;;2088045;28;20168;-70
2022/06/06 00:01:20;;;;;;;8.57;7.88;;;22.00;82.10;;;;;;2088443;28;20045;-70
2022/06/06 00:02:21;;;;;;;8.68;7.88;;;22.10;82.00;;;;;;2088645;28;20020;-72
2022/06/06 00:03:23;;;;;;;7.90;7.22;;;22.10;82.00;;;;;;2088758;28;20028;-72
2022/06/06 00:04:27;;;;;;;8.18;7.38;;;22.10;82.00;;;;;;2088575;28;20024;-71
2022/06/06 00:05:27;;;;;;;7.95;7.32;;;22.10;81.90;;;;;;2088433;28;20589;-73
2022/06/06 00:06:28;;;;;;;8.05;7.35;;;22.10;82.10;;;;;;2079733;28;20035;-72
2022/06/06 00:07:29;;;;;;;8.13;7.43;;;22.10;82.30;;;;;;2079595;28;20021;-71
2022/06/06 00:08:30;;;;;;;8.13;7.43;;;22.10;82.40;;;;;;2079623;28;20028;-71
2022/06/06 00:09:31;;;;;;;8.30;7.60;;;22.10;82.30;;;;;;2079491;28;20025;-70
2022/06/06 00:10:31;;;;;;;8.93;8.13;;;22.10;82.20;;;;;;2088068;28;20406;-70
2022/06/06 00:11:33;;;;;;;8.20;7.40;;;22.10;82.40;;;;;;2088657;28;20057;-70
2022/06/06 00:12:35;;;;;;;8.65;7.88;;;22.00;82.30;;;;;;2088454;28;20029;-70
2022/06/06 00:13:39;;;;;;;9.15;8.35;;;22.00;82.50;;;;;;2079758;28;20077;-70
2022/06/06 00:14:40;;;;;;;8.48;7.78;;;22.00;83.20;;;;;;2080160;28;20025;-70
2022/06/06 00:15:41;;;;;;;8.80;8.00;;;22.00;83.40;;;;;;2088435;28;20029;-72
2022/06/06 00:16:42;;;;;;;8.52;7.82;;;22.00;83.60;;;;;;2088517;28;20104;-69
2022/06/06 00:17:43;;;;;;;8.50;7.80;;;22.00;83.70;;;;;;2088451;28;20510;-70
2022/06/06 00:18:44;;;;;;;8.52;7.82;;;22.00;83.70;;;;;;2088600;28;20057;-69
2022/06/06 00:19:44;;;;;;;8.32;7.63;;;22.00;83.80;;;;;;2071334;28;20034;-70
2022/06/06 00:20:45;;;;;;;8.30;7.60;;;21.90;83.80;;;;;;2071502;28;20029;-69
2022/06/06 00:21:48;;;;;;;8.50;7.80;;;21.90;84.00;;;;;;2088420;28;20394;-70
2022/06/06 00:22:49;;;;;;;8.75;8.02;;;21.90;84.20;;;;;;2088547;28;20529;-70
2022/06/06 00:23:53;;;;;;;9.07;8.05;;;21.90;84.10;;;;;;2088206;28;20036;-70
2022/06/06 00:24:54;;;;;;;8.43;7.72;;;21.90;84.40;;;;;;2088405;28;20062;-71
2022/06/06 00:25:56;;;;;;;8.18;7.47;;;21.80;84.50;;;;;;2088515;28;20029;-71
2022/06/06 00:26:57;;;;;;;8.50;7.80;;;21.80;84.60;;;;;;2079364;28;20095;-71
2022/06/06 00:27:57;;;;;;;8.30;7.60;;;21.80;84.80;;;;;;2079494;28;20072;-71
2022/06/06 00:28:58;;;;;;;8.40;7.70;;;21.80;85.00;;;;;;2088261;28;20056;-74
2022/06/06 00:29:59;;;;;;;8.68;7.82;;;21.80;85.20;;;;;;2087859;28;20112;-72
2022/06/06 00:34:48;;;;;;;8.45;7.75;;;21.70;85.40;;;;;;2088247;28;20024;-70
2022/06/06 00:35:05;;;;;;;9.48;8.52;;;21.80;87.80;;;;;;2078324;28;20610;-71
2022/06/06 00:36:06;;;;;;;9.52;8.63;;;21.80;88.50;;;;;;2087285;28;20543;-69
2022/06/06 00:37:09;;;;;;;9.82;8.82;;;21.80;89.80;;;;;;2079389;28;20021;-70
2022/06/06 00:38:10;;;;;;;9.95;9.05;;;21.70;90.20;;;;;;2071494;28;20026;-71
2022/06/06 00:39:13;;;;;;;10.15;8.40;;;21.80;90.70;;;;;;2079376;28;20086;-70
2022/06/06 00:40:17;;;;;;;9.60;8.80;;;21.70;91.10;;;;;;2087787;28;20078;-71
2022/06/06 00:41:18;;;;;;;9.65;8.80;;;21.80;91.20;;;;;;2079353;28;20503;-70
2022/06/06 00:42:20;;;;;;;9.35;8.55;;;21.80;91.40;;;;;;2079140;28;20032;-71
2022/06/06 00:43:21;;;;;;;9.32;8.52;;;21.80;91.80;;;;;;2088186;28;20021;-70
2022/06/06 00:44:27;;;;;;;9.27;8.50;;;21.80;92.20;;;;;;2088148;28;20024;-71
2022/06/06 00:45:37;;;;;;;9.85;8.95;;;21.80;92.40;;;;;;2079350;28;20025;-70
2022/06/06 00:46:42;;;;;;;9.65;8.77;;;21.80;92.80;;;;;;2080689;28;20851;-71
2022/06/06 00:47:46;;;;;;;9.95;8.90;;;21.90;93.30;;;;;;2088116;28;20044;-71
2022/06/06 00:48:46;;;;;;;9.25;8.40;;;21.80;93.80;;;;;;2088112;28;20082;-71
2022/06/06 00:50:00;;;;;;;9.52;8.63;;;21.80;94.10;;;;;;2087585;28;20120;-70
2022/06/06 00:51:08;;;;;;;9.07;8.18;;;21.80;94.70;;;;;;2088194;28;20036;-71
2022/06/06 00:52:14;;;;;;;8.80;8.10;;;21.80;95.00;;;;;;2079112;28;20472;-70
2022/06/06 00:53:19;;;;;;;9.15;8.35;;;21.80;95.50;;;;;;2080087;28;20104;-70
2022/06/06 00:54:22;;;;;;;9.00;8.15;;;21.80;95.90;;;;;;2088015;28;20027;-70
2022/06/06 00:55:28;;;;;;;9.10;8.30;;;21.80;96.50;;;;;;2088097;28;20060;-72
2022/06/06 00:56:49;;;;;;;9.15;8.35;;;21.80;97.10;;;;;;2088119;28;20531;-70
2022/06/06 00:58:13;;;;;;;9.45;8.15;;;21.80;97.70;;;;;;2079310;28;20590;-70
2022/06/06 00:59:19;;;;;;;9.13;8.32;;;21.80;98.20;;;;;;2082052;28;20564;-73
2022/06/06 01:00:21;;;;;;;9.13;8.32;;;21.80;98.70;;;;;;2078789;28;20033;-70
2022/06/06 01:01:23;;;;;;;8.57;7.80;;;21.80;99.20;;;;;;2079279;28;20032;-70
2022/06/06 01:02:24;;;;;;;8.52;7.82;;;21.80;99.60;;;;;;2078896;28;20531;-70
2022/06/06 01:03:26;;;;;;;8.27;7.50;;;21.80;99.90;;;;;;2070869;28;20040;-70
2022/06/06 01:04:28;;;;;;;8.07;7.38;;;21.80;99.90;;;;;;2079142;28;20108;-70
2022/06/06 01:05:29;;;;;;;8.02;7.40;;;21.80;99.90;;;;;;2087967;28;20031;-70
2022/06/06 01:06:33;;;;;;;8.50;7.65;;;21.80;99.90;;;;;;2087990;28;20399;-70
2022/06/06 01:07:34;;;;;;;8.50;7.70;;;21.80;99.90;;;;;;2087709;28;20025;-69
2022/06/06 01:08:37;;;;;;;8.50;7.72;;;21.80;99.90;;;;;;2087956;28;20025;-71
2022/06/06 01:09:40;;;;;;;9.48;8.55;;;21.80;99.90;;;;;;2087680;28;20025;-71
2022/06/06 01:10:40;;;;;;;8.95;8.18;;;21.80;99.90;;;;;;2087935;28;20772;-70
2022/06/06 01:11:47;;;;;;;8.80;8.00;;;21.80;99.90;;;;;;2088054;28;20052;-71
2022/06/06 01:12:52;;;;;;;8.80;7.55;;;21.80;99.90;;;;;;2088103;28;20507;-71
2022/06/06 01:13:55;;;;;;;8.98;8.18;;;21.80;99.90;;;;;;2087953;28;20025;-70
2022/06/06 01:15:01;;;;;;;9.80;8.80;;;21.80;99.90;;;;;;2087897;28;20430;-70
2022/06/06 01:16:14;;;;;;;9.25;7.88;;;21.70;99.90;;;;;;2087973;28;20088;-70
2022/06/06 01:17:21;;;;;;;8.75;7.88;;;21.70;99.90;;;;;;2087655;28;20104;-70
2022/06/06 01:18:49;;;;;;;9.35;8.32;;;21.70;99.90;;;;;;2087898;28;20021;-70
2022/06/06 01:20:01;;;;;;;9.00;8.10;;;21.70;99.90;;;;;;2053899;28;20051;-71
2022/06/06 01:21:32;;;;;;;8.40;7.70;;;21.60;99.90;;;;;;2088026;28;20044;-70
2022/06/06 01:23:12;;;;;;;9.57;8.68;;;21.60;99.90;;;;;;2087759;28;20040;-70
2022/06/06 01:24:29;;;;;;;9.18;8.27;;;21.50;99.90;;;;;;2087950;28;20119;-71
2022/06/06 01:25:55;;;;;;;9.30;8.32;;;21.50;99.90;;;;;;2078965;28;20109;-69
2022/06/06 01:27:20;;;;;;;9.88;8.30;;;21.50;99.90;;;;;;2082818;28;20509;-70
2022/06/06 01:28:40;;;;;;;9.07;8.18;;;21.50;99.90;;;;;;2087899;28;20036;-70
2022/06/06 01:29:46;;;;;;;8.10;7.40;;;21.40;99.90;;;;;;2087681;28;20040;-69
2022/06/06 01:30:52;;;;;;;9.27;7.85;;;21.40;99.90;;;;;;2079003;28;20079;-70
2022/06/06 01:32:04;;;;;;;8.63;7.65;;;21.30;99.90;;;;;;2079772;28;20440;-70
2022/06/06 01:33:09;;;;;;;9.23;7.93;;;21.30;99.90;;;;;;2087934;28;20551;-70
2022/06/06 01:34:13;;;;;;;7.80;7.10;;;21.30;99.90;;;;;;2087857;28;20029;-71
2022/06/06 01:35:24;;;;;;;8.27;7.43;;;21.30;99.90;;;;;;2087600;28;20064;-71
2022/06/06 01:36:27;;;;;;;8.07;7.30;;;21.20;99.90;;;;;;2087690;28;20032;-70
2022/06/06 01:37:36;;;;;;;7.63;6.82;;;21.20;99.90;;;;;;2087824;28;20488;-70
2022/06/06 01:38:37;;;;;;;9.00;6.60;;;21.20;99.90;;;;;;2078921;28;20542;-71
2022/06/06 01:39:37;;;;;;;7.85;7.05;;;21.20;99.90;;;;;;2078720;28;20035;-70
2022/06/06 01:41:00;;;;;;;7.15;6.50;;;21.20;99.90;;;;;;2078957;28;20765;-71
2022/06/06 01:42:18;;;;;;;7.15;6.50;;;21.10;99.90;;;;;;2081953;28;20503;-71
2022/06/06 01:43:26;;;;;;;7.05;6.38;;;21.10;99.90;;;;;;2087746;28;20029;-71
2022/06/06 01:44:38;;;;;;;7.68;6.72;;;21.10;99.90;;;;;;2078869;28;20136;-69
2022/06/06 01:45:43;;;;;;;6.55;5.95;;;21.10;99.90;;;;;;2080678;28;20041;-71
2022/06/06 01:46:43;;;;;;;7.03;5.93;;;21.10;99.90;;;;;;2088807;28;20047;-70
2022/06/06 01:47:50;;;;;;;6.18;5.40;;;21.10;99.90;;;;;;2089531;28;20052;-70
2022/06/06 01:48:51;;;;;;;7.30;5.35;;;21.10;99.90;;;;;;2089475;28;20044;-70
2022/06/06 01:49:57;;;;;;;5.75;5.13;;;21.00;99.90;;;;;;2089280;28;20415;-69
2022/06/06 01:50:58;;;;;;;7.63;5.07;;;21.00;99.90;;;;;;2089626;28;20029;-70
2022/06/06 01:52:07;;;;;;;5.43;4.93;;;21.00;99.90;;;;;;2089452;28;20078;-70
2022/06/06 01:53:22;;;;;;;5.97;4.95;;;21.00;99.90;;;;;;2089644;28;20499;-70
2022/06/06 01:54:22;;;;;;;6.68;5.40;;;21.00;99.90;;;;;;2089314;28;20029;-70
2022/06/06 01:55:26;;;;;;;5.25;4.75;;;21.00;99.90;;;;;;2089494;28;20025;-69
2022/06/06 01:56:31;;;;;;;5.47;4.88;;;20.90;99.90;;;;;;2089545;28;20028;-69
2022/06/06 01:57:32;;;;;;;5.53;4.68;;;20.90;99.90;;;;;;2089539;28;20487;-70
2022/06/06 01:58:34;;;;;;;6.70;4.72;;;20.90;99.90;;;;;;2080639;28;20033;-69
2022/06/06 01:59:35;;;;;;;5.03;4.63;;;20.90;99.90;;;;;;2080482;28;20646;-70
2022/06/06 02:00:38;;;;;;;5.30;4.80;;;20.90;99.90;;;;;;2089194;28;20029;-70
2022/06/06 02:01:38;;;;;;;5.18;4.68;;;20.90;99.90;;;;;;2080492;28;20860;-71
2022/06/06 02:02:43;;;;;;;5.38;4.68;;;20.90;99.90;;;;;;2080546;28;20037;-70
2022/06/06 02:03:43;;;;;;;5.30;4.28;;;20.90;99.90;;;;;;2089319;28;20027;-71
2022/06/06 02:04:45;;;;;;;6.32;4.78;;;20.80;99.90;;;;;;2089247;28;20033;-71
2022/06/06 02:05:45;;;;;;;4.70;4.30;;;20.80;99.90;;;;;;2089502;28;20461;-70
2022/06/06 02:06:46;;;;;;;6.85;5.15;;;20.80;99.90;;;;;;2080601;28;20041;-70
2022/06/06 02:07:47;;;;;;;8.13;4.82;;;20.80;99.90;;;;;;2080469;28;20026;-70
2022/06/06 02:08:50;;;;;;;6.68;5.00;;;20.80;99.90;;;;;;2080454;28;20610;-70
2022/06/06 02:09:51;;;;;;;4.90;4.40;;;20.80;99.90;;;;;;2072004;28;20472;-69
2022/06/06 02:10:53;;;;;;;5.38;4.13;;;20.70;99.90;;;;;;2080284;28;20029;-69
2022/06/06 02:11:53;;;;;;;6.28;4.53;;;20.70;99.90;;;;;;2089313;28;20075;-71
2022/06/06 02:12:54;;;;;;;5.20;4.15;;;20.70;99.90;;;;;;2089388;28;20085;-70
2022/06/06 02:13:55;;;;;;;4.95;4.45;;;20.70;99.90;;;;;;2089712;28;20040;-70
2022/06/06 02:14:55;;;;;;;5.65;4.20;;;20.70;99.90;;;;;;2090449;28;20050;-71
2022/06/06 02:15:57;;;;;;;4.60;4.00;;;20.70;99.90;;;;;;2089713;28;20033;-70
2022/06/06 02:16:57;;;;;;;4.20;3.55;;;20.70;99.90;;;;;;2089582;28;20585;-69
2022/06/06 02:17:58;;;;;;;4.55;3.85;;;20.60;99.90;;;;;;2089502;28;20029;-71
2022/06/06 02:18:59;;;;;;;4.50;4.10;;;20.60;99.90;;;;;;2089303;28;20033;-70
2022/06/06 02:20:02;;;;;;;4.20;3.80;;;20.60;99.90;;;;;;2089086;28;20044;-70
2022/06/06 02:21:04;;;;;;;4.40;4.00;;;20.60;99.90;;;;;;2080517;28;20128;-70
2022/06/06 02:22:04;;;;;;;5.57;4.18;;;20.60;99.90;;;;;;2080650;28;20116;-70
2022/06/06 02:23:05;;;;;;;4.18;3.78;;;20.60;99.90;;;;;;2089308;28;20033;-71
2022/06/06 02:24:06;;;;;;;4.43;4.03;;;20.60;99.90;;;;;;2089500;28;20039;-71
2022/06/06 02:25:08;;;;;;;4.55;4.07;;;20.60;99.90;;;;;;2089426;28;20040;-71
2022/06/06 02:26:09;;;;;;;4.82;4.32;;;20.50;99.90;;;;;;2089436;28;20033;-70
2022/06/06 02:27:10;;;;;;;5.50;4.05;;;20.50;99.90;;;;;;2089367;28;20486;-71
2022/06/06 02:28:11;;;;;;;4.65;3.90;;;20.50;99.90;;;;;;2089384;28;20025;-70
2022/06/06 02:29:12;;;;;;;4.38;3.90;;;20.50;99.90;;;;;;2089273;28;20017;-71
2022/06/06 02:30:20;;;;;;;4.18;3.78;;;20.40;99.90;;;;;;2088810;28;20029;-69
2022/06/06 02:31:20;;;;;;;4.20;3.80;;;20.40;99.90;;;;;;2080317;28;20021;-72
2022/06/06 02:32:21;;;;;;;4.35;3.70;;;20.40;99.90;;;;;;2080277;28;20101;-70
2022/06/06 02:33:22;;;;;;;5.32;3.90;;;20.40;99.90;;;;;;2089175;28;20055;-69
2022/06/06 02:34:22;;;;;;;6.63;3.92;;;20.30;99.90;;;;;;2088979;28;20025;-71
2022/06/06 02:35:27;;;;;;;4.00;3.60;;;20.20;99.90;;;;;;2089139;28;20100;-70
2022/06/06 02:36:28;;;;;;;4.15;3.65;;;20.20;99.90;;;;;;2089096;28;20037;-70
2022/06/06 02:37:28;;;;;;;5.07;3.75;;;20.20;99.90;;;;;;2089300;28;20059;-72
2022/06/06 02:38:30;;;;;;;5.97;3.70;;;20.10;99.90;;;;;;2089189;28;20083;-70
2022/06/06 02:39:31;;;;;;;5.97;3.83;;;20.10;99.90;;;;;;2088919;28;20059;-70
2022/06/06 02:40:32;;;;;;;6.97;3.78;;;20.00;99.90;;;;;;2089171;28;20029;-69
2022/06/06 02:41:32;;;;;;;5.07;3.97;;;20.00;99.90;;;;;;2089144;28;20041;-71
2022/06/06 02:42:33;;;;;;;5.72;4.10;;;19.90;99.90;;;;;;2088999;28;20036;-70
2022/06/06 02:43:37;;;;;;;5.00;3.95;;;19.90;99.90;;;;;;2080551;28;20033;-69
2022/06/06 02:44:38;;;;;;;5.20;3.53;;;19.80;99.90;;;;;;2072736;28;20110;-70
2022/06/06 02:45:40;;;;;;;4.68;3.67;;;19.80;99.90;;;;;;2080546;28;20109;-70
2022/06/06 02:46:40;;;;;;;5.78;3.92;;;19.80;99.90;;;;;;2089409;28;20033;-69
2022/06/06 02:47:42;;;;;;;5.32;3.88;;;19.70;99.90;;;;;;2089145;28;20078;-70
2022/06/06 02:48:42;;;;;;;5.60;3.78;;;19.80;99.90;;;;;;2080507;28;20033;-69
2022/06/06 02:49:43;;;;;;;4.22;3.80;;;19.70;99.90;;;;;;2080228;28;20029;-72
2022/06/06 02:50:44;;;;;;;3.95;3.47;;;19.70;99.90;;;;;;2089031;28;20025;-68
2022/06/06 02:51:44;;;;;;;4.97;4.00;;;19.70;99.90;;;;;;2089080;28;20068;-69
2022/06/06 02:52:45;;;;;;;4.28;3.80;;;19.70;99.90;;;;;;2080235;28;20123;-69
2022/06/06 02:53:46;;;;;;;4.45;4.05;;;19.70;99.90;;;;;;2080257;28;20051;-69
2022/06/06 02:54:47;;;;;;;4.80;3.83;;;19.60;99.90;;;;;;2088859;28;20094;-69
2022/06/06 02:55:51;;;;;;;4.57;3.92;;;19.60;99.90;;;;;;2089025;28;20491;-70
2022/06/06 02:56:52;;;;;;;4.28;3.80;;;19.60;99.90;;;;;;2088851;28;20032;-70
2022/06/06 02:57:53;;;;;;;4.18;3.65;;;19.60;99.90;;;;;;2079950;28;20037;-70
2022/06/06 02:58:57;;;;;;;4.70;4.10;;;19.60;99.90;;;;;;2080259;28;20034;-70
2022/06/06 03:00:00;;;;;;;5.95;3.90;;;19.60;99.90;;;;;;2088501;28;20028;-72
2022/06/06 03:01:07;;;;;;;4.30;3.90;;;19.50;99.90;;;;;;2088791;28;20021;-70
2022/06/06 03:02:09;;;;;;;4.40;3.90;;;19.50;99.90;;;;;;2079936;28;20089;-70
2022/06/06 03:03:10;;;;;;;4.80;3.80;;;19.50;99.90;;;;;;2080206;28;20026;-70
2022/06/06 03:04:11;;;;;;;4.10;3.70;;;19.50;99.90;;;;;;2088830;28;20036;-70
2022/06/06 03:05:12;;;;;;;4.68;3.70;;;19.50;99.90;;;;;;2088946;28;20025;-69
2022/06/06 03:06:43;;;;;;;4.43;3.97;;;19.40;99.90;;;;;;2089008;28;20021;-70
2022/06/06 03:08:20;;;;;;;4.30;3.90;;;19.40;99.90;;;;;;2088790;28;20059;-71
2022/06/06 03:09:41;;;;;;;4.80;4.03;;;19.30;99.90;;;;;;2079719;28;20171;-73
2022/06/06 03:11:04;;;;;;;4.60;3.90;;;19.30;99.90;;;;;;2074450;28;20034;-70
2022/06/06 03:12:14;;;;;;;4.45;3.85;;;19.30;99.90;;;;;;2083185;28;20033;-70
2022/06/06 03:13:58;;;;;;;4.07;3.67;;;19.30;99.90;;;;;;2088904;28;20035;-71
2022/06/06 03:15:17;;;;;;;4.43;3.80;;;19.30;99.90;;;;;;2079963;28;20025;-69
2022/06/06 03:22:17;;;;;;;4.50;3.90;;;19.20;99.90;;;;;;2088708;28;20475;-69
2022/06/06 03:23:20;;;;;;;4.30;3.83;;;19.10;99.90;;;;;;2055149;28;20548;-70
2022/06/06 03:24:24;;;;;;;5.43;3.90;;;19.10;99.90;;;;;;2047016;28;20109;-69
2022/06/06 03:25:42;;;;;;;4.32;3.90;;;19.10;99.90;;;;;;2056789;28;20069;-69
2022/06/06 03:27:13;;;;;;;4.43;4.03;;;19.10;99.90;;;;;;2088706;28;20032;-69
2022/06/06 03:28:27;;;;;;;;;;;19.10;99.90;;;;;;2055267;28;20157;-69
2022/06/06 03:30:05;;;;;;;4.30;3.90;;;19.10;99.90;;;;;;2088525;28;20367;-69
2022/06/06 03:31:23;;;;;;;5.90;3.90;;;19.00;99.90;;;;;;2088712;28;20558;-69
2022/06/06 03:32:32;;;;;;;5.10;4.00;;;19.00;99.90;;;;;;2079692;28;20033;-69
2022/06/06 03:33:48;;;;;;;4.50;4.10;;;19.00;99.90;;;;;;2081095;28;20101;-69
2022/06/06 03:35:30;;;;;;;4.50;4.10;;;19.00;99.90;;;;;;2088778;28;20033;-70
2022/06/06 03:36:50;;;;;;;5.55;4.20;;;18.90;99.90;;;;;;2054842;28;20397;-71
2022/06/06 03:38:01;;;;;;;4.97;3.80;;;18.90;99.90;;;;;;2046965;28;20046;-70
2022/06/06 03:39:09;;;;;;;4.63;4.10;;;18.80;99.90;;;;;;2047052;29;20042;-70
2022/06/06 03:40:57;;;;;;;4.43;4.03;;;18.90;99.90;;;;;;2047461;28;20116;-70
2022/06/06 03:42:15;;;;;;;4.40;4.00;;;18.90;99.90;;;;;;2041464;28;20032;-70
2022/06/06 03:43:41;;;;;;;4.68;4.28;;;18.90;99.90;;;;;;2062820;28;20023;-70
2022/06/06 03:45:06;;;;;;;5.50;4.10;;;18.80;99.90;;;;;;2062991;28;20132;-69
2022/06/06 03:46:39;;;;;;;4.55;4.15;;;18.80;99.90;;;;;;2063095;28;20074;-69
2022/06/06 03:47:52;;;;;;;6.05;4.20;;;18.80;99.90;;;;;;2078440;28;20053;-69
2022/06/06 03:49:13;;;;;;;4.68;4.20;;;18.80;99.90;;;;;;2088672;28;20024;-69
2022/06/06 03:50:23;;;;;;;5.00;4.07;;;18.80;99.90;;;;;;2088313;28;20025;-69
2022/06/06 03:51:43;;;;;;;4.53;4.10;;;18.80;99.90;;;;;;2088506;28;20017;-69
2022/06/06 03:53:02;;;;;;;8.27;4.20;;;18.80;99.90;;;;;;2088187;28;20036;-69
2022/06/06 03:54:17;;;;;;;4.82;4.30;;;18.80;99.90;;;;;;2088452;28;20021;-69
2022/06/06 03:55:35;;;;;;;4.53;4.13;;;18.80;99.90;;;;;;2079535;28;20033;-69
2022/06/06 03:56:58;;;;;;;5.80;4.30;;;18.90;99.90;;;;;;2073858;28;20057;-70
2022/06/06 03:58:03;;;;;;;4.43;4.03;;;18.90;99.90;;;;;;2082970;28;20036;-69
2022/06/06 03:59:06;;;;;;;4.93;3.90;;;18.90;99.90;;;;;;2088355;28;20140;-70
2022/06/06 04:00:12;;;;;;;6.05;4.20;;;18.90;99.90;;;;;;2079249;28;20492;-68
2022/06/06 04:01:14;;;;;;;5.00;4.45;;;18.90;99.90;;;;;;2080440;28;20041;-68
2022/06/06 04:02:20;;;;;;;4.32;3.92;;;18.90;99.90;;;;;;2088534;28;20017;-71
2022/06/06 04:03:21;;;;;;;4.72;4.28;;;18.90;99.90;;;;;;2088339;28;20083;-72
2022/06/06 04:04:23;;;;;;;7.40;4.50;;;18.90;99.90;;;;;;2071285;28;20052;-69
2022/06/06 04:05:24;;;;;;;4.88;4.30;;;19.00;99.90;;;;;;2071806;28;20017;-70
2022/06/06 04:06:28;;;;;;;4.47;4.07;;;18.90;99.90;;;;;;2088413;28;20796;-69
2022/06/06 04:07:30;;;;;;;5.07;4.57;;;18.90;99.90;;;;;;2088544;28;20467;-69
2022/06/06 04:08:32;;;;;;;4.90;4.40;;;18.90;99.90;;;;;;2088418;28;20100;-70
2022/06/06 04:09:34;;;;;;;4.60;4.20;;;18.90;99.90;;;;;;2087656;28;20187;-69
2022/06/06 04:10:53;;;;;;;4.60;4.20;;;18.90;99.90;;;;;;2088239;28;20017;-70
2022/06/06 04:12:14;;;;;;;4.82;4.40;;;18.90;99.90;;;;;;2088164;28;20032;-69
2022/06/06 04:13:24;;;;;;;;;;;18.90;99.90;;;;;;2088897;28;20039;-69
2022/06/06 04:14:40;;;;;;;4.60;4.20;;;18.90;99.90;;;;;;2079699;28;19915;-70
2022/06/06 04:15:52;;;;;;;4.70;4.20;;;18.90;99.90;;;;;;2065557;28;20062;-70
2022/06/06 04:17:17;;;;;;;4.68;4.28;;;18.90;99.90;;;;;;2074822;28;20053;-70
2022/06/06 04:19:02;;;;;;;4.65;4.22;;;18.90;99.90;;;;;;2088738;28;20105;-71
2022/06/06 04:20:31;;;;;;;5.03;4.50;;;19.00;99.90;;;;;;2054735;28;20035;-69
2022/06/06 04:21:34;;;;;;;5.40;4.90;;;19.00;99.90;;;;;;2054795;28;20060;-69
2022/06/06 04:22:35;;;;;;;4.70;4.30;;;19.00;99.90;;;;;;2079916;28;20182;-70
2022/06/06 04:23:58;;;;;;;4.60;4.20;;;19.00;99.90;;;;;;2088450;28;20025;-71
2022/06/06 04:25:10;;;;;;;7.13;4.70;;;19.10;99.90;;;;;;2088570;28;20036;-70
2022/06/06 04:26:58;;;;;;;4.78;4.38;;;19.00;99.90;;;;;;2088735;28;20379;-69
2022/06/06 04:28:05;;;;;;;4.95;4.40;;;19.10;99.90;;;;;;2080642;28;20091;-70
2022/06/06 04:29:20;;;;;;;4.95;4.40;;;19.10;99.90;;;;;;2088239;28;20088;-70
2022/06/06 04:30:39;;;;;;;4.88;4.47;;;19.10;99.90;;;;;;2088037;28;20116;-70
2022/06/06 04:31:55;;;;;;;4.70;4.20;;;19.10;99.90;;;;;;2088117;28;20557;-70
2022/06/06 04:33:15;;;;;;;4.70;4.20;;;19.20;99.90;;;;;;2088267;28;20029;-69
2022/06/06 04:34:46;;;;;;;4.80;4.32;;;19.20;99.90;;;;;;2088272;28;20039;-69
2022/06/06 04:36:04;;;;;;;4.30;3.80;;;19.20;99.90;;;;;;2088148;28;20032;-70
2022/06/06 04:37:51;;;;;;;4.30;4.00;;;19.20;99.90;;;;;;2088272;28;20476;-70
2022/06/06 04:39:33;;;;;;;4.53;4.13;;;19.30;99.90;;;;;;2054457;28;20023;-70
2022/06/06 04:40:54;;;;;;;4.47;4.07;;;19.30;99.90;;;;;;2054259;28;20030;-69
2022/06/06 04:42:08;;;;;;;5.05;4.20;;;19.30;99.90;;;;;;2087694;28;20111;-70
2022/06/06 04:43:30;;;;;;;4.20;3.80;;;19.30;99.90;;;;;;2088067;28;20415;-69
2022/06/06 04:44:40;;;;;;;4.50;4.10;;;19.40;99.90;;;;;;2079152;28;20025;-71
2022/06/06 04:45:46;;;;;;;4.43;3.97;;;19.40;99.90;;;;;;2072095;28;20154;-71
2022/06/06 04:47:07;;;;;;;4.28;3.88;;;19.40;99.90;;;;;;2071665;28;20029;-71
2022/06/06 04:48:08;;;;;;;4.25;3.85;;;19.50;99.90;;;;;;2073604;28;20034;-70
2022/06/06 04:49:11;;;;;;;4.30;3.80;;;19.50;99.90;;;;;;2079283;28;20033;-69
2022/06/06 04:50:15;;;;;;;4.25;3.85;;;19.50;99.90;;;;;;2078553;28;20033;-70
2022/06/06 04:51:19;;;;;;;5.57;4.30;;;19.50;99.90;;;;;;2079770;28;20088;-69
2022/06/06 04:52:22;;;;;;;4.43;4.00;;;19.50;99.90;;;;;;2087896;28;20033;-69
2022/06/06 04:53:24;;;;;;;4.65;4.18;;;19.60;99.90;;;;;;2088093;28;20029;-70
2022/06/06 04:54:27;;;;;;;4.30;3.90;;;19.60;99.90;;;;;;2088043;28;20017;-71
2022/06/06 04:55:32;;;;;;;4.18;3.78;;;19.60;99.90;;;;;;2087898;28;20021;-70
2022/06/06 04:56:33;;;;;;;4.88;3.65;;;19.50;99.90;;;;;;2079227;28;20052;-70
2022/06/06 04:57:36;;;;;;;4.47;3.60;;;19.60;99.90;;;;;;2079224;28;20030;-70
2022/06/06 04:58:38;;;;;;;4.13;3.80;;;19.60;99.90;;;;;;2087951;28;20479;-70
2022/06/06 04:59:40;;;;;;;3.88;3.58;;;19.70;99.90;;;;;;2087706;28;20017;-70
2022/06/06 05:00:42;;;;;;;5.30;4.05;;;19.70;99.90;;;;;;2087718;28;20040;-71
2022/06/06 05:01:43;;;;;;;4.00;3.70;;;19.70;99.90;;;;;;2087920;28;20116;-70
2022/06/06 05:02:43;;;;;;;4.82;3.72;;;19.70;99.90;;;;;;2087804;28;20518;-71
2022/06/06 05:03:45;;;;;;;3.72;3.40;;;19.70;99.90;;;;;;2087768;28;20067;-70
2022/06/06 05:04:45;;;;;;;4.18;3.78;;;19.70;99.90;;;;;;2087643;28;20048;-71
2022/06/06 05:06:20;;;;;;;5.25;3.80;;;19.80;99.90;;;;;;2079043;28;20462;-71
2022/06/06 05:07:46;;;;;;;4.43;3.70;;;19.80;99.90;;;;;;2083792;28;20024;-71
2022/06/06 05:09:15;;;;;;;4.00;3.60;;;19.80;99.90;;;;;;2087910;28;20029;-70
2022/06/06 05:10:37;;;;;;;4.85;4.30;;;19.80;99.90;;;;;;2087587;28;20037;-71
2022/06/06 05:11:49;;;;;;;5.88;4.00;;;19.80;99.90;;;;;;2088082;28;20037;-70
2022/06/06 05:13:04;;;;;;;4.20;3.80;;;19.80;99.90;;;;;;2087993;28;20502;-71
2022/06/06 05:14:48;;;;;;;4.57;3.58;;;19.70;99.90;;;;;;2088265;28;20032;-70
2022/06/06 05:15:55;;;;;;;4.82;3.80;;;19.80;99.90;;;;;;2079076;28;20032;-70
2022/06/06 05:17:17;;;;;;;5.75;3.45;;;19.90;99.90;;;;;;2079858;28;20029;-70
2022/06/06 05:18:51;;;;;;;3.78;3.47;;;19.90;99.90;;;;;;2079147;28;20040;-70
2022/06/06 05:20:24;;;;;;;3.65;3.33;;;20.00;99.90;;;;;;2083912;28;20086;-70
2022/06/06 05:22:13;;;;;;;7.13;3.60;;;19.90;99.90;;;;;;2053620;28;20541;-70
2022/06/06 05:23:23;;;;;;;3.78;3.30;;;20.00;99.90;;;;;;2069487;28;20030;-71
2022/06/06 05:24:49;;;;;;;3.95;3.55;;;20.00;99.90;;;;;;2087642;28;20120;-70
2022/06/06 05:26:02;;;;;;;3.90;3.50;;;20.00;99.90;;;;;;2078902;28;20076;-70
2022/06/06 05:27:33;;;;;;;3.75;3.40;;;20.00;99.90;;;;;;2080764;28;20041;-71
2022/06/06 05:29:14;;;;;;;3.78;3.45;;;20.10;99.90;;;;;;2079023;28;20029;-70
2022/06/06 05:30:22;;;;;;;5.88;3.47;;;20.10;99.90;;;;;;2084416;28;20052;-70
2022/06/06 05:31:50;;;;;;;4.00;3.40;;;20.20;99.90;;;;;;2078905;28;20064;-70
2022/06/06 05:32:54;;;;;;;5.40;3.67;;;20.20;99.90;;;;;;2082617;28;20052;-71
2022/06/06 05:34:10;;;;;;;4.60;3.75;;;20.20;99.90;;;;;;2088579;28;20036;-71
2022/06/06 05:35:22;;;;;;;3.50;3.20;;;20.30;99.90;;;;;;2088044;28;20099;-71
2022/06/06 05:36:50;;;;;;;3.40;3.08;;;20.40;99.90;;;;;;2079486;28;20069;-71
2022/06/06 05:38:22;;;;;;;3.60;3.20;;;20.60;99.90;;;;;;2083062;28;20032;-71
2022/06/06 05:39:42;;;;;;;3.28;2.92;;;21.00;99.90;;;;;;2087876;28;20013;-71
2022/06/06 05:40:59;;;;;;;3.10;2.83;;;21.60;99.90;;;;;;2087831;28;20029;-70
2022/06/06 05:42:10;;;;;;;3.03;2.72;;;22.10;99.90;;;;;;2078743;28;20060;-70
2022/06/06 05:43:23;;;;;;;3.90;3.00;;;22.50;99.90;;;;;;2080340;28;20025;-72
2022/06/06 05:44:52;;;;;;;2.90;2.70;;;23.00;99.90;;;;;;2087444;28;20025;-70
2022/06/06 05:46:14;;;;;;;3.10;2.90;;;23.50;99.90;;;;;;2078825;28;20148;-71
2022/06/06 05:47:34;;;;;;;2.90;2.70;;;23.60;99.90;;;;;;2081987;28;20048;-70
2022/06/06 05:48:50;;;;;;;3.63;2.72;;;23.70;99.90;;;;;;2079015;28;20040;-71
2022/06/06 05:50:06;;;;;;;2.75;2.55;;;24.00;99.90;;;;;;2080938;28;20087;-71
2022/06/06 05:51:13;;;;;;;2.80;2.40;;;24.20;99.90;;;;;;2087771;28;20029;-71
2022/06/06 05:52:22;;;;;;;3.05;2.75;;;24.50;99.90;;;;;;2087640;28;20036;-73
2022/06/06 05:53:32;;;;;;;2.72;2.50;;;24.70;99.90;;;;;;2087821;28;20021;-71
2022/06/06 05:55:01;;;;;;;3.33;2.25;;;25.10;99.90;;;;;;2087762;28;20027;-71
2022/06/06 05:56:27;;;;;;;3.30;2.60;;;25.50;99.90;;;;;;2087850;28;20121;-72
2022/06/06 05:57:39;;;;;;;3.13;2.33;;;25.70;99.90;;;;;;2087747;28;20132;-71
2022/06/06 05:59:09;;;;;;;2.67;2.38;;;26.00;99.90;;;;;;2087850;28;20502;-71
2022/06/06 06:00:17;;;;;;;2.78;2.50;;;26.30;99.90;;;;;;2078647;28;20750;-70
2022/06/06 06:01:36;;;;;;;3.83;2.60;;;26.40;99.70;;;;;;2079828;28;20025;-70
2022/06/06 06:02:52;;;;;;;2.58;2.38;;;26.40;99.20;;;;;;2087802;28;20499;-70
2022/06/06 06:04:10;;;;;;;2.92;2.42;;;26.40;98.60;;;;;;2087773;28;20565;-69
2022/06/06 06:05:21;;;;;;;2.90;2.25;;;26.60;98.20;;;;;;2088082;28;20029;-70
2022/06/06 06:06:28;;;;;;;2.35;2.13;;;26.70;98.00;;;;;;2087971;28;20024;-70
2022/06/06 06:07:42;;;;;;;3.47;2.10;;;26.90;98.50;;;;;;2087652;28;20748;-69
2022/06/06 06:08:55;;;;;;;2.40;2.10;;;27.00;95.40;;;;;;2070646;28;20109;-70
2022/06/06 06:10:08;;;;;;;2.92;2.05;;;26.70;95.60;;;;;;2073976;28;20033;-72
2022/06/06 06:11:39;;;;;;;2.25;1.98;;;26.50;95.00;;;;;;2087871;28;20029;-69
2022/06/06 06:12:50;;;;;;;;;;;26.40;95.50;;;;;;2088227;28;20032;-71